sensor_id;sensor_type;location;lat;lon;timestamp;pressure;altitude;pressure_sealevel;temperature;humidity
33075;BME280;19433;51.292;6.868;2023-10-19T00:01:55;98245.41;;;11.44;100.00
33075;BME280;19433;51.292;6.868;2023-10-19T00:04:21;98228.50;;;11.41;100.00
33075;BME280;19433;51.292;6.868;2023-10-19T00:06:48;98231.59;;;11.49;100.00
33075;BME280;19433;51.292;6.868;2023-10-19T00:09:34;98243.47;;;11.45;100.00
33075;BME280;19433;51.292;6.868;2023-10-19T00:12:22;98241.88;;;11.54;100.00
33075;BME280;19433;51.292;6.868;2023-10-19T00:14:48;98245.53;;;11.59;100.00
33075;BME280;19433;51.292;6.868;2023-10-19T00:17:15;98237.69;;;11.51;100.00
33075;BME280;19433;51.292;6.868;2023-10-19T00:19:40;98229.66;;;11.45;100.00
33075;BME280;19433;51.292;6.868;2023-10-19T00:22:22;98230.75;;;11.44;100.00
33075;BME280;19433;51.292;6.868;2023-10-19T00:24:49;98230.19;;;11.47;100.00
33075;BME280;19433;51.292;6.868;2023-10-19T00:27:15;98251.53;;;11.51;100.00
33075;BME280;19433;51.292;6.868;2023-10-19T00:29:42;98235.50;;;11.53;100.00
33075;BME280;19433;51.292;6.868;2023-10-19T00:32:14;98229.75;;;11.60;100.00
33075;BME280;19433;51.292;6.868;2023-10-19T00:34:40;98230.03;;;11.58;100.00
33075;BME280;19433;51.292;6.868;2023-10-19T00:37:06;98229.50;;;11.67;100.00
33075;BME280;19433;51.292;6.868;2023-10-19T00:39:36;98218.19;;;11.68;100.00
33075;BME280;19433;51.292;6.868;2023-10-19T00:42:15;98217.66;;;11.71;100.00
33075;BME280;19433;51.292;6.868;2023-10-19T00:44:45;98227.84;;;11.66;100.00
33075;BME280;19433;51.292;6.868;2023-10-19T00:47:15;98222.88;;;11.68;100.00
33075;BME280;19433;51.292;6.868;2023-10-19T00:49:45;98218.75;;;11.70;100.00
33075;BME280;19433;51.292;6.868;2023-10-19T00:52:13;98220.13;;;11.68;100.00
33075;BME280;19433;51.292;6.868;2023-10-19T00:54:46;98218.56;;;11.82;100.00
33075;BME280;19433;51.292;6.868;2023-10-19T00:57:11;98229.28;;;11.73;100.00
33075;BME280;19433;51.292;6.868;2023-10-19T00:59:39;98231.75;;;11.70;100.00
33075;BME280;19433;51.292;6.868;2023-10-19T01:02:15;98230.84;;;11.96;100.00
33075;BME280;19433;51.292;6.868;2023-10-19T01:04:45;98239.44;;;12.00;100.00
33075;BME280;19433;51.292;6.868;2023-10-19T01:07:12;98232.97;;;11.84;100.00
33075;BME280;19433;51.292;6.868;2023-10-19T01:09:46;98235.59;;;12.06;100.00
33075;BME280;19433;51.292;6.868;2023-10-19T01:12:12;98245.00;;;12.05;100.00
33075;BME280;19433;51.292;6.868;2023-10-19T01:15:06;98230.88;;;12.01;100.00
33075;BME280;19433;51.292;6.868;2023-10-19T01:17:51;98248.56;;;12.00;100.00
33075;BME280;19433;51.292;6.868;2023-10-19T01:20:24;98237.53;;;12.10;100.00
33075;BME280;19433;51.292;6.868;2023-10-19T01:25:56;98228.06;;;11.96;100.00
33075;BME280;19433;51.292;6.868;2023-10-19T01:28:59;98233.88;;;11.94;100.00
33075;BME280;19433;51.292;6.868;2023-10-19T01:31:34;98228.63;;;11.98;100.00
33075;BME280;19433;51.292;6.868;2023-10-19T01:34:04;98244.19;;;12.09;100.00
33075;BME280;19433;51.292;6.868;2023-10-19T01:36:34;98242.59;;;12.18;100.00
33075;BME280;19433;51.292;6.868;2023-10-19T01:39:07;98243.41;;;12.19;100.00
33075;BME280;19433;51.292;6.868;2023-10-19T01:41:37;98242.06;;;12.21;100.00
33075;BME280;19433;51.292;6.868;2023-10-19T01:44:06;98243.41;;;12.19;100.00
33075;BME280;19433;51.292;6.868;2023-10-19T01:46:34;98240.97;;;12.27;100.00
33075;BME280;19433;51.292;6.868;2023-10-19T01:49:01;98236.25;;;12.28;100.00
33075;BME280;19433;51.292;6.868;2023-10-19T01:51:29;98239.09;;;12.43;100.00
33075;BME280;19433;51.292;6.868;2023-10-19T01:53:56;98237.41;;;12.42;100.00
33075;BME280;19433;51.292;6.868;2023-10-19T01:56:22;98233.25;;;12.40;100.00
33075;BME280;19433;51.292;6.868;2023-10-19T01:58:48;98228.56;;;12.45;100.00
33075;BME280;19433;51.292;6.868;2023-10-19T02:01:17;98233.28;;;12.45;100.00
33075;BME280;19433;51.292;6.868;2023-10-19T02:03:48;98229.41;;;12.46;100.00
33075;BME280;19433;51.292;6.868;2023-10-19T02:06:19;98228.88;;;12.49;100.00
33075;BME280;19433;51.292;6.868;2023-10-19T02:08:54;98230.25;;;12.56;100.00
33075;BME280;19433;51.292;6.868;2023-10-19T02:11:23;98227.53;;;12.61;100.00
33075;BME280;19433;51.292;6.868;2023-10-19T02:13:53;98224.16;;;12.54;100.00
33075;BME280;19433;51.292;6.868;2023-10-19T02:16:20;98220.03;;;12.57;100.00
33075;BME280;19433;51.292;6.868;2023-10-19T02:18:48;98216.72;;;12.60;100.00
33075;BME280;19433;51.292;6.868;2023-10-19T02:21:14;98218.34;;;12.56;100.00
33075;BME280;19433;51.292;6.868;2023-10-19T02:23:40;98217.00;;;12.68;100.00
33075;BME280;19433;51.292;6.868;2023-10-19T02:26:08;98215.59;;;12.56;100.00
33075;BME280;19433;51.292;6.868;2023-10-19T02:28:34;98218.09;;;12.57;100.00
33075;BME280;19433;51.292;6.868;2023-10-19T02:31:03;98221.22;;;12.81;100.00
33075;BME280;19433;51.292;6.868;2023-10-19T02:33:41;98205.13;;;12.78;100.00
33075;BME280;19433;51.292;6.868;2023-10-19T02:36:11;98210.13;;;12.81;100.00
33075;BME280;19433;51.292;6.868;2023-10-19T02:38:41;98205.91;;;12.68;100.00
33075;BME280;19433;51.292;6.868;2023-10-19T02:41:09;98208.47;;;12.90;100.00
33075;BME280;19433;51.292;6.868;2023-10-19T02:43:35;98216.78;;;12.95;100.00
33075;BME280;19433;51.292;6.868;2023-10-19T02:46:01;98211.22;;;12.85;100.00
33075;BME280;19433;51.292;6.868;2023-10-19T02:48:27;98209.59;;;13.04;100.00
33075;BME280;19433;51.292;6.868;2023-10-19T02:50:53;98208.75;;;13.04;100.00
33075;BME280;19433;51.292;6.868;2023-10-19T02:53:18;98204.31;;;13.03;100.00
33075;BME280;19433;51.292;6.868;2023-10-19T02:55:44;98208.50;;;13.11;100.00
33075;BME280;19433;51.292;6.868;2023-10-19T02:58:09;98211.81;;;12.97;100.00
33075;BME280;19433;51.292;6.868;2023-10-19T03:00:37;98211.25;;;13.00;100.00
33075;BME280;19433;51.292;6.868;2023-10-19T03:03:03;98205.19;;;13.14;100.00
33075;BME280;19433;51.292;6.868;2023-10-19T03:05:30;98215.69;;;13.07;100.00
33075;BME280;19433;51.292;6.868;2023-10-19T03:07:56;98211.81;;;13.02;100.00
33075;BME280;19433;51.292;6.868;2023-10-19T03:10:21;98197.97;;;13.13;100.00
33075;BME280;19433;51.292;6.868;2023-10-19T03:13:02;98202.97;;;13.16;100.00
33075;BME280;19433;51.292;6.868;2023-10-19T03:15:29;98200.22;;;13.21;100.00
33075;BME280;19433;51.292;6.868;2023-10-19T03:17:58;98193.56;;;13.22;100.00
33075;BME280;19433;51.292;6.868;2023-10-19T03:20:23;98186.31;;;13.11;100.00
33075;BME280;19433;51.292;6.868;2023-10-19T03:22:51;98188.84;;;13.22;100.00
33075;BME280;19433;51.292;6.868;2023-10-19T03:25:17;98192.47;;;13.28;100.00
33075;BME280;19433;51.292;6.868;2023-10-19T03:28:00;98173.56;;;13.15;100.00
33075;BME280;19433;51.292;6.868;2023-10-19T03:30:36;98178.56;;;13.13;100.00
33075;BME280;19433;51.292;6.868;2023-10-19T03:33:04;98175.78;;;13.08;100.00
33075;BME280;19433;51.292;6.868;2023-10-19T03:35:30;98184.09;;;13.13;100.00
33075;BME280;19433;51.292;6.868;2023-10-19T03:37:55;98185.25;;;13.27;100.00
33075;BME280;19433;51.292;6.868;2023-10-19T03:40:23;98172.47;;;13.31;100.00
33075;BME280;19433;51.292;6.868;2023-10-19T03:42:57;98176.06;;;13.36;100.00
33075;BME280;19433;51.292;6.868;2023-10-19T03:45:23;98171.09;;;13.33;100.00
33075;BME280;19433;51.292;6.868;2023-10-19T03:47:50;98176.63;;;13.44;100.00
33075;BME280;19433;51.292;6.868;2023-10-19T03:50:19;98172.47;;;13.36;100.00
33075;BME280;19433;51.292;6.868;2023-10-19T03:52:47;98173.84;;;13.49;100.00
33075;BME280;19433;51.292;6.868;2023-10-19T03:55:12;98168.56;;;13.57;100.00
33075;BME280;19433;51.292;6.868;2023-10-19T03:57:43;98163.84;;;13.58;100.00
33075;BME280;19433;51.292;6.868;2023-10-19T04:00:12;98171.34;;;13.47;100.00
33075;BME280;19433;51.292;6.868;2023-10-19T04:02:44;98164.69;;;13.53;100.00
33075;BME280;19433;51.292;6.868;2023-10-19T04:05:10;98148.31;;;13.57;100.00
33075;BME280;19433;51.292;6.868;2023-10-19T04:07:40;98141.66;;;13.53;100.00
33075;BME280;19433;51.292;6.868;2023-10-19T04:10:06;98158.06;;;13.34;100.00
33075;BME280;19433;51.292;6.868;2023-10-19T04:12:33;98161.38;;;13.21;100.00
33075;BME280;19433;51.292;6.868;2023-10-19T04:15:01;98155.00;;;13.41;100.00
33075;BME280;19433;51.292;6.868;2023-10-19T04:17:45;98148.91;;;13.44;100.00
33075;BME280;19433;51.292;6.868;2023-10-19T04:20:12;98143.06;;;13.55;100.00
33075;BME280;19433;51.292;6.868;2023-10-19T04:22:40;98149.94;;;13.73;100.00
33075;BME280;19433;51.292;6.868;2023-10-19T04:25:05;98149.13;;;13.67;100.00
33075;BME280;19433;51.292;6.868;2023-10-19T04:27:31;98151.34;;;13.65;100.00
33075;BME280;19433;51.292;6.868;2023-10-19T04:30:02;98152.72;;;13.68;100.00
33075;BME280;19433;51.292;6.868;2023-10-19T04:32:28;98148.00;;;13.68;100.00
33075;BME280;19433;51.292;6.868;2023-10-19T04:34:53;98147.19;;;13.68;100.00
33075;BME280;19433;51.292;6.868;2023-10-19T04:37:19;98153.84;;;13.72;100.00
33075;BME280;19433;51.292;6.868;2023-10-19T04:39:45;98152.72;;;13.63;100.00
33075;BME280;19433;51.292;6.868;2023-10-19T04:42:11;98153.84;;;13.67;100.00
33075;BME280;19433;51.292;6.868;2023-10-19T04:44:37;98149.13;;;13.62;100.00
33075;BME280;19433;51.292;6.868;2023-10-19T04:47:02;98144.41;;;13.63;100.00
33075;BME280;19433;51.292;6.868;2023-10-19T04:49:27;98149.44;;;13.56;100.00
33075;BME280;19433;51.292;6.868;2023-10-19T04:51:53;98144.97;;;13.60;100.00
33075;BME280;19433;51.292;6.868;2023-10-19T04:54:18;98148.59;;;13.45;100.00
33075;BME280;19433;51.292;6.868;2023-10-19T04:56:44;98139.50;;;13.24;100.00
33075;BME280;19433;51.292;6.868;2023-10-19T04:59:09;98137.81;;;13.44;100.00
33075;BME280;19433;51.292;6.868;2023-10-19T05:01:34;98146.94;;;13.54;100.00
33075;BME280;19433;51.292;6.868;2023-10-19T05:04:00;98144.16;;;13.54;100.00
33075;BME280;19433;51.292;6.868;2023-10-19T05:06:26;98135.00;;;13.59;100.00
33075;BME280;19433;51.292;6.868;2023-10-19T05:08:58;98158.03;;;13.54;100.00
33075;BME280;19433;51.292;6.868;2023-10-19T05:11:24;98149.13;;;13.67;100.00
33075;BME280;19433;51.292;6.868;2023-10-19T05:13:49;98149.09;;;13.78;100.00
33075;BME280;19433;51.292;6.868;2023-10-19T05:16:14;98144.91;;;13.80;100.00
33075;BME280;19433;51.292;6.868;2023-10-19T05:18:40;98153.81;;;13.77;100.00
33075;BME280;19433;51.292;6.868;2023-10-19T05:21:05;98156.34;;;13.68;100.00
33075;BME280;19433;51.292;6.868;2023-10-19T05:23:31;98151.00;;;13.87;100.00
33075;BME280;19433;51.292;6.868;2023-10-19T05:26:01;98152.13;;;13.86;100.00
33075;BME280;19433;51.292;6.868;2023-10-19T05:28:27;98156.28;;;13.89;100.00
33075;BME280;19433;51.292;6.868;2023-10-19T05:30:53;98161.28;;;13.82;100.00
33075;BME280;19433;51.292;6.868;2023-10-19T05:33:19;98154.03;;;13.91;100.00
33075;BME280;19433;51.292;6.868;2023-10-19T05:35:47;98150.13;;;13.97;100.00
33075;BME280;19433;51.292;6.868;2023-10-19T05:38:12;98149.03;;;13.93;100.00
33075;BME280;19433;51.292;6.868;2023-10-19T05:40:37;98157.44;;;13.72;100.00
33075;BME280;19433;51.292;6.868;2023-10-19T05:43:04;98166.31;;;13.75;100.00
33075;BME280;19433;51.292;6.868;2023-10-19T05:45:29;98146.28;;;13.88;100.00
33075;BME280;19433;51.292;6.868;2023-10-19T05:47:55;98162.72;;;13.69;100.00
33075;BME280;19433;51.292;6.868;2023-10-19T05:50:22;98162.97;;;13.78;100.00
33075;BME280;19433;51.292;6.868;2023-10-19T05:52:47;98164.13;;;13.56;100.00
33075;BME280;19433;51.292;6.868;2023-10-19T05:55:14;98168.03;;;13.55;100.00
33075;BME280;19433;51.292;6.868;2023-10-19T05:57:40;98172.44;;;13.66;100.00
33075;BME280;19433;51.292;6.868;2023-10-19T06:00:08;98177.41;;;13.69;100.00
33075;BME280;19433;51.292;6.868;2023-10-19T06:02:38;98168.50;;;13.83;100.00
33075;BME280;19433;51.292;6.868;2023-10-19T06:05:04;98175.19;;;13.66;100.00
33075;BME280;19433;51.292;6.868;2023-10-19T06:07:30;98171.31;;;13.67;100.00
33075;BME280;19433;51.292;6.868;2023-10-19T06:09:56;98168.56;;;13.57;100.00
33075;BME280;19433;51.292;6.868;2023-10-19T06:12:21;98179.91;;;13.71;100.00
33075;BME280;19433;51.292;6.868;2023-10-19T06:14:46;98177.94;;;13.77;100.00
33075;BME280;19433;51.292;6.868;2023-10-19T06:17:12;98179.66;;;13.72;100.00
33075;BME280;19433;51.292;6.868;2023-10-19T06:19:44;98176.56;;;13.79;100.00
33075;BME280;19433;51.292;6.868;2023-10-19T06:22:11;98184.31;;;13.77;100.00
33075;BME280;19433;51.292;6.868;2023-10-19T06:24:37;98190.44;;;13.89;100.00
33075;BME280;19433;51.292;6.868;2023-10-19T06:27:02;98191.22;;;13.95;100.00
33075;BME280;19433;51.292;6.868;2023-10-19T06:29:29;98202.06;;;13.96;100.00
33075;BME280;19433;51.292;6.868;2023-10-19T06:31:54;98207.31;;;13.93;100.00
33075;BME280;19433;51.292;6.868;2023-10-19T06:34:19;98199.28;;;13.96;100.00
33075;BME280;19433;51.292;6.868;2023-10-19T06:36:45;98201.78;;;13.98;100.00
33075;BME280;19433;51.292;6.868;2023-10-19T06:39:11;98198.72;;;14.04;100.00
33075;BME280;19433;51.292;6.868;2023-10-19T06:41:38;98202.00;;;14.06;100.00
33075;BME280;19433;51.292;6.868;2023-10-19T06:44:04;98202.59;;;13.98;100.00
33075;BME280;19433;51.292;6.868;2023-10-19T06:46:29;98201.78;;;13.98;100.00
33075;BME280;19433;51.292;6.868;2023-10-19T06:48:56;98202.03;;;14.01;100.00
33075;BME280;19433;51.292;6.868;2023-10-19T06:51:25;98203.16;;;14.00;100.00
33075;BME280;19433;51.292;6.868;2023-10-19T06:53:52;98210.06;;;14.08;100.00
33075;BME280;19433;51.292;6.868;2023-10-19T06:56:17;98210.06;;;14.13;100.00
33075;BME280;19433;51.292;6.868;2023-10-19T06:58:42;98214.50;;;14.09;100.00
33075;BME280;19433;51.292;6.868;2023-10-19T07:01:08;98202.00;;;14.17;100.00
33075;BME280;19433;51.292;6.868;2023-10-19T07:03:33;98205.06;;;14.15;100.00
33075;BME280;19433;51.292;6.868;2023-10-19T07:05:59;98212.22;;;14.21;100.00
33075;BME280;19433;51.292;6.868;2023-10-19T07:08:25;98204.22;;;14.15;100.00
33075;BME280;19433;51.292;6.868;2023-10-19T07:10:52;98205.84;;;14.21;100.00
33075;BME280;19433;51.292;6.868;2023-10-19T07:13:18;98205.56;;;14.22;100.00
33075;BME280;19433;51.292;6.868;2023-10-19T07:15:46;98205.06;;;14.15;100.00
33075;BME280;19433;51.292;6.868;2023-10-19T07:18:12;98201.44;;;14.20;100.00
33075;BME280;19433;51.292;6.868;2023-10-19T07:20:37;98207.56;;;14.17;100.00
33075;BME280;19433;51.292;6.868;2023-10-19T07:23:04;98208.88;;;14.29;100.00
33075;BME280;19433;51.292;6.868;2023-10-19T07:25:47;98215.53;;;14.33;100.00
33075;BME280;19433;51.292;6.868;2023-10-19T07:28:14;98226.91;;;14.37;100.00
33075;BME280;19433;51.292;6.868;2023-10-19T07:30:40;98228.81;;;14.52;100.00
33075;BME280;19433;51.292;6.868;2023-10-19T07:33:10;98222.66;;;14.60;100.00
33075;BME280;19433;51.292;6.868;2023-10-19T07:35:37;98220.72;;;14.60;100.00
33075;BME280;19433;51.292;6.868;2023-10-19T07:38:08;98218.59;;;14.42;100.00
33075;BME280;19433;51.292;6.868;2023-10-19T07:40:36;98218.00;;;14.50;100.00
33075;BME280;19433;51.292;6.868;2023-10-19T07:43:02;98221.34;;;14.47;100.00
33075;BME280;19433;51.292;6.868;2023-10-19T07:45:28;98221.34;;;14.47;100.00
33075;BME280;19433;51.292;6.868;2023-10-19T07:47:54;98223.22;;;14.62;100.00
33075;BME280;19433;51.292;6.868;2023-10-19T07:50:19;98210.44;;;14.61;100.00
33075;BME280;19433;51.292;6.868;2023-10-19T07:52:50;98209.25;;;14.72;100.00
33075;BME280;19433;51.292;6.868;2023-10-19T07:55:16;98217.00;;;14.80;100.00
33075;BME280;19433;51.292;6.868;2023-10-19T07:57:43;98221.03;;;14.98;100.00
33075;BME280;19433;51.292;6.868;2023-10-19T08:00:10;98226.59;;;14.98;100.00
33075;BME280;19433;51.292;6.868;2023-10-19T08:02:39;98228.03;;;14.95;100.00
33075;BME280;19433;51.292;6.868;2023-10-19T08:05:07;98221.31;;;15.01;100.00
33075;BME280;19433;51.292;6.868;2023-10-19T08:07:33;98219.88;;;15.09;100.00
33075;BME280;19433;51.292;6.868;2023-10-19T08:09:59;98218.59;;;15.30;100.00
33075;BME280;19433;51.292;6.868;2023-10-19T08:12:25;98214.69;;;15.31;100.00
33075;BME280;19433;51.292;6.868;2023-10-19T08:14:52;98207.13;;;15.42;100.00
33075;BME280;19433;51.292;6.868;2023-10-19T08:17:18;98225.38;;;15.58;100.00
33075;BME280;19433;51.292;6.868;2023-10-19T08:19:43;98214.47;;;15.62;100.00
33075;BME280;19433;51.292;6.868;2023-10-19T08:22:08;98218.53;;;16.03;100.00
33075;BME280;19433;51.292;6.868;2023-10-19T08:24:34;98210.75;;;16.48;100.00
33075;BME280;19433;51.292;6.868;2023-10-19T08:27:00;98215.16;;;17.48;100.00
33075;BME280;19433;51.292;6.868;2023-10-19T08:29:26;98216.91;;;18.22;95.90
33075;BME280;19433;51.292;6.868;2023-10-19T08:31:51;98217.34;;;18.30;93.51
33075;BME280;19433;51.292;6.868;2023-10-19T08:34:17;98218.66;;;18.05;96.31
33075;BME280;19433;51.292;6.868;2023-10-19T08:36:42;98219.41;;;18.24;96.09
33075;BME280;19433;51.292;6.868;2023-10-19T08:39:09;98204.19;;;18.30;96.53
33075;BME280;19433;51.292;6.868;2023-10-19T08:41:38;98218.06;;;18.49;91.74
33075;BME280;19433;51.292;6.868;2023-10-19T08:44:05;98216.91;;;18.91;91.83
33075;BME280;19433;51.292;6.868;2023-10-19T08:46:44;98217.13;;;18.81;89.58
33075;BME280;19433;51.292;6.868;2023-10-19T08:49:11;98217.97;;;18.68;92.26
33075;BME280;19433;51.292;6.868;2023-10-19T08:51:38;98209.88;;;18.25;92.14
33075;BME280;19433;51.292;6.868;2023-10-19T08:54:04;98223.53;;;17.67;95.58
33075;BME280;19433;51.292;6.868;2023-10-19T08:56:31;98213.25;;;17.62;97.26
33075;BME280;19433;51.292;6.868;2023-10-19T08:58:58;98211.53;;;17.47;99.18
33075;BME280;19433;51.292;6.868;2023-10-19T09:01:23;98211.25;;;17.49;99.72
33075;BME280;19433;51.292;6.868;2023-10-19T09:03:50;98208.44;;;17.49;98.06
33075;BME280;19433;51.292;6.868;2023-10-19T09:06:15;98208.50;;;17.63;99.42
33075;BME280;19433;51.292;6.868;2023-10-19T09:08:41;98202.97;;;17.76;97.12
33075;BME280;19433;51.292;6.868;2023-10-19T09:11:07;98202.69;;;17.91;96.98
33075;BME280;19433;51.292;6.868;2023-10-19T09:13:50;98205.72;;;18.09;97.68
33075;BME280;19433;51.292;6.868;2023-10-19T09:16:22;98203.22;;;17.93;97.32
33075;BME280;19433;51.292;6.868;2023-10-19T09:18:48;98203.00;;;18.04;95.82
33075;BME280;19433;51.292;6.868;2023-10-19T09:21:18;98203.88;;;18.18;94.90
33075;BME280;19433;51.292;6.868;2023-10-19T09:23:50;98193.41;;;18.10;96.08
33075;BME280;19433;51.292;6.868;2023-10-19T09:26:16;98201.41;;;18.16;93.90
33075;BME280;19433;51.292;6.868;2023-10-19T09:28:46;98199.97;;;18.60;93.22
33075;BME280;19433;51.292;6.868;2023-10-19T09:31:15;98190.56;;;19.64;88.01
33075;BME280;19433;51.292;6.868;2023-10-19T09:33:43;98193.47;;;20.52;84.83
33075;BME280;19433;51.292;6.868;2023-10-19T09:36:13;98203.34;;;22.09;76.24
33075;BME280;19433;51.292;6.868;2023-10-19T09:38:43;98207.44;;;24.95;63.76
33075;BME280;19433;51.292;6.868;2023-10-19T09:41:11;98211.38;;;27.71;54.32
33075;BME280;19433;51.292;6.868;2023-10-19T09:43:39;98228.59;;;29.34;48.67
33075;BME280;19433;51.292;6.868;2023-10-19T09:46:07;98237.03;;;30.47;42.88
33075;BME280;19433;51.292;6.868;2023-10-19T09:48:45;98243.47;;;28.98;45.86
33075;BME280;19433;51.292;6.868;2023-10-19T09:51:11;98229.06;;;27.84;49.12
33075;BME280;19433;51.292;6.868;2023-10-19T09:53:38;98237.88;;;26.77;49.85
33075;BME280;19433;51.292;6.868;2023-10-19T09:56:06;98239.06;;;26.76;53.04
33075;BME280;19433;51.292;6.868;2023-10-19T09:58:44;98235.41;;;28.58;48.19
33075;BME280;19433;51.292;6.868;2023-10-19T10:01:10;98241.81;;;31.14;41.06
33075;BME280;19433;51.292;6.868;2023-10-19T10:06:08;98243.22;;;34.44;33.75
33075;BME280;19433;51.292;6.868;2023-10-19T10:08:35;98249.41;;;35.02;33.92
33075;BME280;19433;51.292;6.868;2023-10-19T10:13:40;98242.72;;;35.15;32.17
33075;BME280;19433;51.292;6.868;2023-10-19T10:16:06;98245.09;;;36.10;30.62
33075;BME280;19433;51.292;6.868;2023-10-19T10:18:32;98237.72;;;36.09;30.41
33075;BME280;19433;51.292;6.868;2023-10-19T10:21:20;98236.03;;;33.94;32.00
33075;BME280;19433;51.292;6.868;2023-10-19T10:23:46;98227.53;;;33.08;34.86
33075;BME280;19433;51.292;6.868;2023-10-19T10:26:19;98218.88;;;32.37;36.02
33075;BME280;19433;51.292;6.868;2023-10-19T10:28:46;98207.22;;;31.22;39.14
33075;BME280;19433;51.292;6.868;2023-10-19T10:31:20;98207.81;;;30.54;39.77
33075;BME280;19433;51.292;6.868;2023-10-19T10:33:54;98197.59;;;29.52;40.10
33075;BME280;19433;51.292;6.868;2023-10-19T10:36:22;98185.75;;;28.71;43.60
33075;BME280;19433;51.292;6.868;2023-10-19T10:38:50;98185.47;;;29.02;43.46
33075;BME280;19433;51.292;6.868;2023-10-19T10:41:22;98200.31;;;28.47;42.44
33075;BME280;19433;51.292;6.868;2023-10-19T10:43:54;98184.03;;;28.44;43.41
33075;BME280;19433;51.292;6.868;2023-10-19T10:46:27;98179.84;;;27.22;47.80
33075;BME280;19433;51.292;6.868;2023-10-19T10:48:54;98184.59;;;26.36;48.74
33075;BME280;19433;51.292;6.868;2023-10-19T10:51:26;98175.28;;;25.51;50.92
33075;BME280;19433;51.292;6.868;2023-10-19T10:53:55;98171.31;;;24.39;57.52
33075;BME280;19433;51.292;6.868;2023-10-19T10:56:22;98166.41;;;23.70;59.86
33075;BME280;19433;51.292;6.868;2023-10-19T10:58:48;98171.25;;;23.28;65.46
33075;BME280;19433;51.292;6.868;2023-10-19T11:01:15;98160.47;;;22.80;63.92
33075;BME280;19433;51.292;6.868;2023-10-19T11:03:41;98165.75;;;22.52;65.55
33075;BME280;19433;51.292;6.868;2023-10-19T11:06:08;98155.94;;;22.29;66.02
33075;BME280;19433;51.292;6.868;2023-10-19T11:08:35;98153.69;;;22.14;70.27
33075;BME280;19433;51.292;6.868;2023-10-19T11:11:06;98147.91;;;22.10;69.24
33075;BME280;19433;51.292;6.868;2023-10-19T11:13:31;98146.50;;;21.78;70.22
33075;BME280;19433;51.292;6.868;2023-10-19T11:15:58;98136.69;;;22.01;68.40
33075;BME280;19433;51.292;6.868;2023-10-19T11:20:56;98151.69;;;25.32;53.73
33075;BME280;19433;51.292;6.868;2023-10-19T11:23:47;98136.16;;;25.66;51.77
33075;BME280;19433;51.292;6.868;2023-10-19T11:26:19;98133.44;;;26.28;50.17
33075;BME280;19433;51.292;6.868;2023-10-19T11:28:44;98117.72;;;26.31;49.34
33075;BME280;19433;51.292;6.868;2023-10-19T11:31:19;98132.56;;;25.81;50.20
33075;BME280;19433;51.292;6.868;2023-10-19T11:33:47;98128.31;;;25.07;52.26
33075;BME280;19433;51.292;6.868;2023-10-19T11:36:17;98116.06;;;23.93;56.48
33075;BME280;19433;51.292;6.868;2023-10-19T11:38:44;98117.03;;;23.10;61.24
33075;BME280;19433;51.292;6.868;2023-10-19T11:41:11;98107.56;;;22.44;63.16
33075;BME280;19433;51.292;6.868;2023-10-19T11:43:38;98097.66;;;22.00;66.50
33075;BME280;19433;51.292;6.868;2023-10-19T11:46:03;98115.31;;;21.45;68.06
33075;BME280;19433;51.292;6.868;2023-10-19T11:48:33;98099.47;;;20.97;71.13
33075;BME280;19433;51.292;6.868;2023-10-19T11:50:59;98096.84;;;21.01;71.75
33075;BME280;19433;51.292;6.868;2023-10-19T11:53:25;98103.59;;;21.26;70.94
33075;BME280;19433;51.292;6.868;2023-10-19T11:55:50;98097.63;;;21.10;71.86
33075;BME280;19433;51.292;6.868;2023-10-19T11:58:17;98094.34;;;21.17;72.07
33075;BME280;19433;51.292;6.868;2023-10-19T12:00:42;98094.53;;;21.20;72.29
33075;BME280;19433;51.292;6.868;2023-10-19T12:03:09;98080.97;;;21.86;69.81
33075;BME280;19433;51.292;6.868;2023-10-19T12:05:36;98094.44;;;22.19;66.75
33075;BME280;19433;51.292;6.868;2023-10-19T12:08:02;98086.72;;;22.36;66.34
33075;BME280;19433;51.292;6.868;2023-10-19T12:10:28;98082.69;;;21.70;69.99
33075;BME280;19433;51.292;6.868;2023-10-19T12:13:06;98074.41;;;21.82;68.59
33075;BME280;19433;51.292;6.868;2023-10-19T12:15:32;98070.75;;;21.82;68.85
33075;BME280;19433;51.292;6.868;2023-10-19T12:17:58;98073.84;;;21.89;70.86
33075;BME280;19433;51.292;6.868;2023-10-19T12:20:24;98080.81;;;22.29;69.00
33075;BME280;19433;51.292;6.868;2023-10-19T12:22:50;98091.03;;;22.34;68.56
33075;BME280;19433;51.292;6.868;2023-10-19T12:25:19;98096.16;;;22.02;70.58
33075;BME280;19433;51.292;6.868;2023-10-19T12:27:46;98085.84;;;21.68;70.74
33075;BME280;19433;51.292;6.868;2023-10-19T12:30:12;98088.38;;;21.44;71.36
33075;BME280;19433;51.292;6.868;2023-10-19T12:32:45;98080.66;;;21.06;73.83
33075;BME280;19433;51.292;6.868;2023-10-19T12:35:14;98083.13;;;20.82;74.69
33075;BME280;19433;51.292;6.868;2023-10-19T12:37:39;98084.59;;;20.62;76.72
33075;BME280;19433;51.292;6.868;2023-10-19T12:40:14;98079.19;;;20.18;76.75
33075;BME280;19433;51.292;6.868;2023-10-19T12:42:56;98075.84;;;19.98;79.16
33075;BME280;19433;51.292;6.868;2023-10-19T12:45:22;98076.81;;;19.94;79.97
33075;BME280;19433;51.292;6.868;2023-10-19T12:47:48;98066.22;;;19.82;79.99
33075;BME280;19433;51.292;6.868;2023-10-19T12:50:14;98071.72;;;19.96;79.96
33075;BME280;19433;51.292;6.868;2023-10-19T12:52:39;98061.41;;;19.74;83.70
33075;BME280;19433;51.292;6.868;2023-10-19T12:55:06;98079.63;;;20.02;80.48
33075;BME280;19433;51.292;6.868;2023-10-19T12:57:32;98075.09;;;19.76;81.80
33075;BME280;19433;51.292;6.868;2023-10-19T12:59:58;98077.44;;;19.51;85.68
33075;BME280;19433;51.292;6.868;2023-10-19T13:02:23;98081.44;;;19.59;83.32
33075;BME280;19433;51.292;6.868;2023-10-19T13:04:49;98067.78;;;19.13;86.13
33075;BME280;19433;51.292;6.868;2023-10-19T13:07:14;98070.00;;;19.02;86.95
33075;BME280;19433;51.292;6.868;2023-10-19T13:09:40;98063.41;;;18.76;87.74